Time;durP1;ratioP1;P1;durP2;ratioP2;P2;SDS_P1;SDS_P2;PMS_P1;PMS_P2;Temp;Humidity;BMP_temperature;BMP_pressure;BME280_temperature;BME280_humidity;BME280_pressure;Samples;Min_cycle;Max_cycle;Signal;HPM_P1;HPM_P2
2022/10/20 00:00:31;;;;;;;8.20;2.65;;;21.20;41.60;;;;;;21176090;28;20134;-60
2022/10/20 00:10:33;;;;;;;10.38;2.88;;;21.00;42.50;;;;;;21175073;28;20048;-60
2022/10/20 00:20:34;;;;;;;8.13;2.10;;;20.90;43.60;;;;;;21174122;28;20540;-60
2022/10/20 00:30:35;;;;;;;9.55;2.35;;;20.90;44.60;;;;;;21174279;28;20094;-61
2022/10/20 00:40:37;;;;;;;7.45;2.10;;;20.90;46.00;;;;;;21172710;28;20047;-62
2022/10/20 00:50:42;;;;;;;8.75;2.90;;;20.90;46.40;;;;;;21171289;28;20059;-61
2022/10/20 01:00:49;;;;;;;6.63;3.05;;;20.70;47.10;;;;;;21170844;28;20048;-60
2022/10/20 01:11:36;;;;;;;9.60;3.30;;;20.70;48.10;;;;;;21152181;28;20134;-61
2022/10/20 01:22:01;;;;;;;11.45;2.83;;;20.60;48.50;;;;;;21166075;28;20044;-61
2022/10/20 01:32:23;;;;;;;8.13;2.70;;;20.40;49.00;;;;;;21150707;28;20058;-61
2022/10/20 01:42:30;;;;;;;6.35;2.60;;;20.30;49.20;;;;;;21167834;28;20052;-61
2022/10/20 01:52:32;;;;;;;8.43;2.97;;;20.10;50.10;;;;;;21167983;28;20048;-59
2022/10/20 02:03:11;;;;;;;8.85;3.97;;;20.10;50.40;;;;;;21166687;28;20092;-60
2022/10/20 02:13:15;;;;;;;9.93;3.35;;;20.00;50.60;;;;;;21165440;28;20392;-61
2022/10/20 02:23:17;;;;;;;11.45;4.50;;;20.00;50.50;;;;;;21165553;28;20049;-60
2022/10/20 02:33:21;;;;;;;7.22;3.25;;;20.00;50.50;;;;;;21163933;28;20051;-63
2022/10/20 02:43:23;;;;;;;8.18;2.75;;;19.80;51.40;;;;;;21144595;28;20442;-63
2022/10/20 02:53:25;;;;;;;10.02;3.35;;;19.70;52.10;;;;;;21162891;28;20127;-62
2022/10/20 03:03:27;;;;;;;8.07;3.30;;;19.70;52.10;;;;;;21162963;28;20040;-61
2022/10/20 03:13:29;;;;;;;10.27;2.95;;;19.80;51.90;;;;;;21162393;28;20059;-62
2022/10/20 03:23:31;;;;;;;9.68;3.35;;;19.80;52.10;;;;;;21163049;28;20051;-62
2022/10/20 03:33:33;;;;;;;14.05;3.35;;;19.70;52.40;;;;;;21161479;28;20055;-62
2022/10/20 03:43:37;;;;;;;14.73;3.80;;;19.60;52.80;;;;;;21161473;28;20063;-62
2022/10/20 03:53:38;;;;;;;6.90;2.87;;;19.40;53.60;;;;;;21161738;28;20388;-62
2022/10/20 04:03:40;;;;;;;9.52;2.75;;;19.10;51.40;;;;;;21172550;28;20074;-60
2022/10/20 04:13:42;;;;;;;6.97;3.05;;;18.70;52.10;;;;;;21174576;28;20043;-61
2022/10/20 04:23:44;;;;;;;9.50;2.90;;;18.60;52.70;;;;;;21156076;28;20479;-62
2022/10/20 04:33:47;;;;;;;11.65;3.25;;;18.70;52.80;;;;;;21174145;28;20135;-63
2022/10/20 04:43:51;;;;;;;11.20;2.90;;;18.80;53.20;;;;;;21172861;28;20048;-62
2022/10/20 04:53:54;;;;;;;9.02;3.17;;;18.90;53.00;;;;;;21172656;28;20055;-62
2022/10/20 05:03:56;;;;;;;14.50;4.38;;;18.80;53.40;;;;;;21171198;28;20470;-63
2022/10/20 05:13:58;;;;;;;11.38;3.22;;;18.80;54.00;;;;;;21170387;28;20052;-62
2022/10/20 05:24:04;;;;;;;12.35;4.28;;;19.00;54.30;;;;;;21170738;28;20040;-63
2022/10/20 05:34:06;;;;;;;9.98;3.67;;;19.10;54.50;;;;;;21168459;28;20079;-61
2022/10/20 05:44:10;;;;;;;7.53;3.33;;;19.10;54.00;;;;;;21168058;28;20075;-62
2022/10/20 05:54:13;;;;;;;13.27;3.00;;;19.20;52.60;;;;;;21166736;28;20093;-63
2022/10/20 06:04:18;;;;;;;9.40;2.83;;;19.30;52.30;;;;;;21167386;28;20498;-62
2022/10/20 06:14:21;;;;;;;10.23;3.20;;;19.50;51.00;;;;;;21164635;28;20160;-63
2022/10/20 06:24:23;;;;;;;12.30;2.43;;;19.40;51.20;;;;;;21164539;28;20048;-62
2022/10/20 06:34:25;;;;;;;6.85;2.25;;;19.70;48.70;;;;;;21163346;28;20051;-62
2022/10/20 06:44:27;;;;;;;7.43;2.42;;;19.70;49.10;;;;;;21163577;28;20105;-62
2022/10/20 06:54:28;;;;;;;6.60;2.38;;;19.70;48.00;;;;;;21162900;28;20150;-63
2022/10/20 07:04:30;;;;;;;7.05;1.98;;;19.70;47.40;;;;;;21162920;28;20483;-63
2022/10/20 07:14:36;;;;;;;9.23;2.40;;;19.80;47.10;;;;;;21162953;28;20052;-61
2022/10/20 07:24:40;;;;;;;10.75;3.65;;;19.70;46.70;;;;;;21162420;28;20502;-62
2022/10/20 07:34:42;;;;;;;5.80;2.70;;;19.70;47.40;;;;;;21168464;28;20047;-64
2022/10/20 07:44:43;;;;;;;7.35;3.30;;;19.70;47.50;;;;;;21177120;28;20315;-63
2022/10/20 07:54:45;;;;;;;9.93;5.38;;;19.80;47.40;;;;;;21176691;28;20083;-62
2022/10/20 08:04:47;;;;;;;11.90;4.10;;;19.90;47.10;;;;;;21176823;28;20126;-63
2022/10/20 08:14:48;;;;;;;8.75;3.80;;;20.00;47.10;;;;;;21156677;28;20135;-62
2022/10/20 08:24:50;;;;;;;10.90;3.35;;;20.10;47.50;;;;;;21175642;28;20123;-63
2022/10/20 08:34:52;;;;;;;13.95;4.53;;;20.20;47.10;;;;;;21174301;28;20052;-61
2022/10/20 08:44:58;;;;;;;11.98;3.10;;;20.20;47.30;;;;;;21171797;28;20134;-62
2022/10/20 08:55:03;;;;;;;9.90;3.13;;;20.30;47.70;;;;;;21172567;28;20048;-63
2022/10/20 09:05:07;;;;;;;8.52;2.17;;;20.40;48.30;;;;;;21170731;28;20130;-62
2022/10/20 09:15:09;;;;;;;;;;;20.90;49.20;;;;;;21170723;28;20468;-60
2022/10/20 09:25:29;;;;;;;11.27;3.47;;;21.10;48.80;;;;;;21168903;28;19908;-61
2022/10/20 09:35:35;;;;;;;13.77;5.07;;;21.40;48.30;;;;;;21168424;28;20055;-60
2022/10/20 09:45:49;;;;;;;10.85;3.50;;;21.40;49.60;;;;;;21166641;28;20048;-65
2022/10/20 09:55:51;;;;;;;10.07;4.65;;;21.50;48.90;;;;;;21164655;28;20052;-63
2022/10/20 10:05:59;;;;;;;15.90;8.32;;;21.60;48.50;;;;;;21160672;28;20498;-60
2022/10/20 10:16:07;;;;;;;12.00;3.30;;;21.50;48.60;;;;;;21158581;28;20475;-65
2022/10/20 10:26:34;;;;;;;6.30;2.00;;;21.60;48.60;;;;;;21140742;28;20040;-61
2022/10/20 10:36:36;;;;;;;7.35;2.00;;;21.80;48.70;;;;;;21161602;28;20130;-59
2022/10/20 10:46:53;;;;;;;6.28;1.73;;;21.80;48.70;;;;;;21162284;28;20059;-59
2022/10/20 10:57:33;;;;;;;6.38;1.70;;;21.90;48.50;;;;;;21163569;28;20054;-60
2022/10/20 11:07:47;;;;;;;8.27;2.20;;;21.90;48.50;;;;;;21162730;28;20047;-63
2022/10/20 11:17:48;;;;;;;7.30;2.20;;;22.00;48.70;;;;;;21174489;28;20138;-61
2022/10/20 11:27:50;;;;;;;3.97;1.52;;;22.10;48.80;;;;;;21179243;28;20051;-59
2022/10/20 11:38:10;;;;;;;6.82;2.00;;;22.30;47.60;;;;;;21159805;28;20043;-61
2022/10/20 11:48:24;;;;;;;5.25;2.15;;;22.30;47.70;;;;;;21180248;28;20055;-69
2022/10/20 11:59:04;;;;;;;6.30;1.65;;;22.20;47.00;;;;;;21186384;28;20093;-65
2022/10/20 12:09:11;;;;;;;7.00;1.75;;;22.00;46.40;;;;;;21135886;28;20055;-69
2022/10/20 12:19:18;;;;;;;5.43;1.52;;;22.10;45.80;;;;;;21155552;28;20043;-71
2022/10/20 12:29:31;;;;;;;6.78;2.20;;;21.80;54.10;;;;;;21173492;28;20512;-69
2022/10/20 12:39:33;;;;;;;8.82;2.75;;;20.80;60.20;;;;;;21172645;28;20472;-71
2022/10/20 12:49:42;;;;;;;5.15;2.05;;;20.20;63.60;;;;;;21171719;28;20445;-68
2022/10/20 12:59:45;;;;;;;2.78;1.30;;;20.10;60.10;;;;;;21171209;28;20104;-69
2022/10/20 13:09:53;;;;;;;6.28;1.70;;;20.10;58.20;;;;;;21170695;28;20160;-70
2022/10/20 13:20:01;;;;;;;4.93;1.83;;;20.20;57.90;;;;;;21171836;28;20048;-64
2022/10/20 13:30:07;;;;;;;6.97;1.88;;;20.10;59.70;;;;;;21168341;28;20051;-64
2022/10/20 13:40:16;;;;;;;2.58;1.20;;;20.20;56.40;;;;;;21150627;28;20051;-67
2022/10/20 13:50:25;;;;;;;5.15;1.52;;;20.20;54.90;;;;;;21166362;28;20058;-64
2022/10/20 14:00:29;;;;;;;3.63;1.60;;;19.70;56.90;;;;;;21166319;28;20575;-68
2022/10/20 14:10:46;;;;;;;4.80;1.63;;;19.40;57.80;;;;;;21166166;28;20075;-70
2022/10/20 14:21:03;;;;;;;3.00;1.30;;;19.30;58.40;;;;;;21164652;28;20048;-66
2022/10/20 14:31:06;;;;;;;5.07;1.80;;;19.30;58.40;;;;;;21165600;28;20055;-68
2022/10/20 14:41:08;;;;;;;;;;;19.10;59.60;;;;;;21163855;28;20050;-64
2022/10/20 14:51:28;;;;;;;5.57;2.28;;;19.00;59.00;;;;;;21163299;28;19926;-63
2022/10/20 15:01:32;;;;;;;4.85;1.98;;;18.80;60.60;;;;;;21163650;28;20495;-68
2022/10/20 15:11:38;;;;;;;7.00;2.55;;;18.60;61.90;;;;;;21163138;28;20052;-65
2022/10/20 15:21:39;;;;;;;6.57;2.25;;;18.60;62.60;;;;;;21144854;28;20494;-67
2022/10/20 15:31:42;;;;;;;7.67;3.80;;;18.60;63.20;;;;;;21163109;28;20181;-63
2022/10/20 15:41:43;;;;;;;6.00;3.22;;;18.40;68.40;;;;;;21162121;28;20062;-66
2022/10/20 15:51:47;;;;;;;6.70;3.00;;;18.30;68.80;;;;;;21161594;28;20054;-68
2022/10/20 16:01:48;;;;;;;6.13;2.60;;;18.20;68.10;;;;;;21158893;28;20054;-68
2022/10/20 16:11:50;;;;;;;6.57;2.67;;;18.20;67.00;;;;;;21175563;28;20151;-67
2022/10/20 16:21:52;;;;;;;7.80;3.33;;;18.20;67.10;;;;;;21175485;28;20055;-65
2022/10/20 16:31:54;;;;;;;7.38;3.85;;;18.10;67.80;;;;;;21173978;28;20048;-68
2022/10/20 16:41:56;;;;;;;9.05;3.22;;;17.80;70.80;;;;;;21172693;28;20044;-68
2022/10/20 16:51:59;;;;;;;6.75;3.42;;;17.70;69.60;;;;;;21171803;28;20051;-66
2022/10/20 17:02:01;;;;;;;8.43;3.50;;;17.70;70.00;;;;;;21171349;28;20097;-75
2022/10/20 17:12:03;;;;;;;8.10;3.13;;;17.80;71.10;;;;;;21167179;28;20398;-62
2022/10/20 17:22:05;;;;;;;7.72;2.90;;;17.90;69.90;;;;;;21167651;28;20122;-63
2022/10/20 17:32:07;;;;;;;6.45;3.30;;;17.90;70.30;;;;;;21167487;28;20055;-63
2022/10/20 17:42:08;;;;;;;6.13;2.38;;;17.90;71.00;;;;;;21165820;28;20097;-63
2022/10/20 17:52:10;;;;;;;5.78;2.90;;;18.10;70.90;;;;;;21164870;28;20062;-59
2022/10/20 18:02:11;;;;;;;5.93;2.22;;;18.10;71.80;;;;;;21162515;28;20056;-60
2022/10/20 18:12:13;;;;;;;6.45;2.50;;;18.00;72.10;;;;;;21163602;28;20131;-60
2022/10/20 18:22:15;;;;;;;5.35;2.38;;;18.10;72.70;;;;;;21164284;28;20051;-60
2022/10/20 18:32:16;;;;;;;6.10;2.95;;;18.30;73.20;;;;;;21163606;28;20059;-59
2022/10/20 18:42:18;;;;;;;5.72;3.20;;;19.30;68.40;;;;;;21145836;28;20495;-60
2022/10/20 18:52:19;;;;;;;6.07;1.85;;;18.70;70.40;;;;;;21145833;28;20066;-59
2022/10/20 19:02:20;;;;;;;4.72;1.98;;;18.40;69.90;;;;;;21163357;28;20188;-59
2022/10/20 19:12:22;;;;;;;6.20;2.53;;;18.20;69.70;;;;;;21163239;28;20055;-60
2022/10/20 19:22:24;;;;;;;6.70;2.70;;;18.20;70.30;;;;;;21162891;28;20044;-60
2022/10/20 19:32:25;;;;;;;7.85;3.72;;;18.10;70.20;;;;;;21155305;28;20130;-60
2022/10/20 19:42:26;;;;;;;6.40;3.15;;;18.20;70.70;;;;;;21177530;28;20064;-60
2022/10/20 19:52:28;;;;;;;4.88;2.90;;;18.00;71.70;;;;;;21177959;28;20048;-60
2022/10/20 20:02:29;;;;;;;7.18;2.75;;;18.00;71.70;;;;;;21176778;28;20050;-58
2022/10/20 20:12:31;;;;;;;7.65;2.50;;;17.90;72.60;;;;;;21175429;28;20043;-59
2022/10/20 20:22:33;;;;;;;9.00;3.63;;;17.90;73.60;;;;;;21173905;28;20480;-59
2022/10/20 20:32:36;;;;;;;5.18;2.65;;;17.90;74.20;;;;;;21173898;28;20047;-62
2022/10/20 20:42:37;;;;;;;7.80;3.17;;;17.90;74.80;;;;;;21170974;28;20404;-59
2022/10/20 20:52:39;;;;;;;5.70;3.15;;;17.90;75.30;;;;;;21171253;28;20097;-60
2022/10/20 21:02:45;;;;;;;5.72;2.65;;;17.80;75.60;;;;;;21171558;28;20056;-59
2022/10/20 21:12:46;;;;;;;7.82;2.90;;;18.00;75.30;;;;;;21169745;28;20051;-60
2022/10/20 21:22:49;;;;;;;3.38;2.13;;;17.90;75.90;;;;;;21170263;28;20113;-59
2022/10/20 21:33:01;;;;;;;4.30;1.90;;;18.00;75.20;;;;;;21168825;28;20052;-57
2022/10/20 21:43:02;;;;;;;3.22;1.50;;;18.00;74.10;;;;;;21149402;28;20479;-59
2022/10/20 21:53:04;;;;;;;3.65;1.42;;;18.10;73.40;;;;;;21166885;28;20058;-59
2022/10/20 22:03:06;;;;;;;3.85;1.80;;;18.00;73.20;;;;;;21166430;28;20075;-59
2022/10/20 22:13:08;;;;;;;3.88;1.83;;;18.00;73.70;;;;;;21165061;28;20052;-58
2022/10/20 22:23:09;;;;;;;4.00;2.30;;;17.90;75.60;;;;;;21163617;28;20124;-59
2022/10/20 22:33:11;;;;;;;5.80;2.35;;;17.70;77.10;;;;;;21163452;28;20059;-61
2022/10/20 22:43:13;;;;;;;3.65;1.55;;;17.60;77.70;;;;;;21163352;28;20412;-59
2022/10/20 22:53:15;;;;;;;3.50;1.50;;;17.70;77.80;;;;;;21163306;28;20419;-61
2022/10/20 23:03:16;;;;;;;5.07;2.00;;;17.70;78.20;;;;;;21162682;28;20079;-58
2022/10/20 23:13:18;;;;;;;5.43;2.67;;;17.60;78.80;;;;;;21161581;28;20506;-59
2022/10/20 23:23:20;;;;;;;7.20;3.17;;;17.60;79.50;;;;;;21161626;28;20143;-60
2022/10/20 23:33:22;;;;;;;6.60;3.30;;;17.50;79.80;;;;;;21161027;28;20419;-61
2022/10/20 23:43:24;;;;;;;5.75;4.32;;;17.50;80.20;;;;;;21142294;28;20048;-59
2022/10/20 23:53:26;;;;;;;6.25;4.32;;;17.50;80.00;;;;;;21160776;28;20117;-60
